Brill, Wisconsin
Current Conditions -  °F | °C
As of 8:35 PM on Wednesday 17 Dec 2014 (Local Time) from KRPD Reporting Station
Overcast Overcast  
Wind Chill:   Ceiling: 1800
Heat Index: 18°   Visibility: 10mi
Dew Point: 12°   Wind: 7mph
Humidity: 78%   Direction: 360°N
Pressure: 30.29"   Gusts: NA
Location:  45.6°N, 91.67°W
Report Text: KRPD 180235Z AUTO 36006KT 10SM OVC018 M08/M11 A3029 RMK AO2 T10801112
Loading
Personal Weather Stations






























Interactive Weather Map New forecast layout! Learn more

10-Day Weather Forecast

Advertisements
Track Severe Weather on mobile